Time;durP1;ratioP1;P1;durP2;ratioP2;P2;SDS_P1;SDS_P2;PMS_P1;PMS_P2;Temp;Humidity;BMP_temperature;BMP_pressure;BME280_temperature;BME280_humidity;BME280_pressure;Samples;Min_cycle;Max_cycle;Signal;HPM_P1;HPM_P2
2022/03/10 00:00:18;;;;;;;28.17;12.37;;;;;;;4.85;48.81;101047.16;5382329;32;33840;-71
2022/03/10 00:03:20;;;;;;;31.05;13.30;;;;;;;4.84;49.02;101052.38;5363362;32;34354;-67
2022/03/10 00:06:22;;;;;;;28.70;13.93;;;;;;;4.66;49.67;101060.25;5376378;32;34956;-71
2022/03/10 00:09:24;;;;;;;25.77;12.87;;;;;;;4.88;49.22;101061.88;5339756;32;36052;-66
2022/03/10 00:12:26;;;;;;;26.93;13.40;;;;;;;4.93;49.01;101061.88;5368424;32;35530;-73
2022/03/10 00:15:28;;;;;;;29.07;13.30;;;;;;;5.02;49.07;101064.41;5337825;32;44239;-70
2022/03/10 00:18:31;;;;;;;27.40;13.47;;;;;;;4.57;50.43;101074.16;5365428;32;35189;-70
2022/03/10 00:21:33;;;;;;;26.53;13.13;;;;;;;4.52;50.49;101078.53;5379134;32;35173;-70
2022/03/10 00:24:35;;;;;;;29.63;13.23;;;;;;;4.96;49.19;101080.06;5353340;32;35344;-71
2022/03/10 00:27:37;;;;;;;24.07;13.13;;;;;;;4.86;49.58;101080.13;5353172;32;32876;-71
2022/03/10 00:30:39;;;;;;;23.47;12.23;;;;;;;5.63;48.12;101087.47;5366321;32;34649;-71
2022/03/10 00:33:41;;;;;;;28.57;13.83;;;;;;;5.94;47.01;101086.38;5375122;32;34228;-71
2022/03/10 00:36:43;;;;;;;25.47;12.23;;;;;;;4.99;49.42;101093.09;5355153;32;35093;-71
2022/03/10 00:39:45;;;;;;;26.90;14.10;;;;;;;5.36;49.04;101092.00;5354540;32;34635;-67
2022/03/10 00:42:48;;;;;;;26.97;12.67;;;;;;;5.31;48.75;101105.94;5341847;32;33573;-66
2022/03/10 00:45:50;;;;;;;21.57;12.33;;;;;;;5.27;49.11;101110.31;5354415;32;35837;-71
2022/03/10 00:48:52;;;;;;;24.00;12.90;;;;;;;5.12;49.42;101111.25;5345871;32;35735;-67
2022/03/10 00:51:54;;;;;;;27.27;12.83;;;;;;;6.62;45.78;101099.59;5363262;32;36636;-67
2022/03/10 00:54:56;;;;;;;24.37;12.17;;;;;;;6.15;46.66;101111.41;5377366;32;34108;-71
2022/03/10 00:57:58;;;;;;;23.37;12.47;;;;;;;5.64;48.81;101117.91;5366665;32;43274;-71
2022/03/10 01:01:01;;;;;;;25.13;11.80;;;;;;;5.52;48.90;101128.41;5367079;32;34618;-67
2022/03/10 01:04:03;;;;;;;23.87;12.27;;;;;;;5.38;49.55;101129.38;5381526;32;34657;-71
2022/03/10 01:07:05;;;;;;;25.83;12.70;;;;;;;5.87;48.25;101122.94;5349204;32;34349;-66
2022/03/10 01:10:08;;;;;;;25.63;12.53;;;;;;;5.56;49.66;101124.91;5369681;32;34591;-71
2022/03/10 01:13:18;;;;;;;26.70;12.60;;;;;;;5.33;49.90;101140.69;5336497;32;35198;-66
2022/03/10 01:16:20;;;;;;;23.23;12.47;;;;;;;5.67;49.87;101137.00;5345152;32;35205;-66
2022/03/10 01:19:23;;;;;;;23.80;12.27;;;;;;;6.19;48.28;101130.53;5375203;32;34355;-66
2022/03/10 01:22:25;;;;;;;22.37;12.20;;;;;;;6.44;48.25;101134.63;5348841;32;34930;-71
2022/03/10 01:25:27;;;;;;;24.97;12.60;;;;;;;5.63;49.74;101144.84;5380837;32;43846;-71
2022/03/10 01:28:29;;;;;;;22.27;12.33;;;;;;;5.94;49.93;101130.75;5362914;32;34407;-66
2022/03/10 01:31:31;;;;;;;24.17;12.70;;;;;;;5.38;52.07;101141.53;5378387;32;35357;-73
2022/03/10 01:34:33;;;;;;;25.73;12.47;;;;;;;5.88;51.16;101128.16;5341235;32;35366;-72
2022/03/10 01:37:39;;;;;;;22.90;11.97;;;;;;;5.11;54.20;101146.00;5354750;32;34069;-67
2022/03/10 01:40:41;;;;;;;25.13;14.00;;;;;;;6.15;51.22;101145.34;5376462;32;35162;-67
2022/03/10 01:43:59;;;;;;;25.77;14.50;;;;;;;5.29;53.60;101147.66;5345491;32;34987;-67
2022/03/10 01:47:01;;;;;;;27.60;13.10;;;;;;;5.20;54.83;101155.53;5376683;32;46069;-71
2022/03/10 01:50:05;;;;;;;24.40;13.57;;;;;;;4.56;55.80;101167.03;5364930;32;34404;-67
2022/03/10 01:53:07;;;;;;;26.73;14.15;;;;;;;4.99;54.35;101160.84;5375936;32;35057;-66
2022/03/10 01:56:10;;;;;;;27.07;13.70;;;;;;;4.79;54.96;101172.19;5362326;32;34594;-70
2022/03/10 01:59:13;;;;;;;24.50;13.27;;;;;;;4.67;56.08;101169.63;5353114;32;34638;-69
2022/03/10 02:02:15;;;;;;;23.87;13.60;;;;;;;4.68;56.51;101168.75;5376417;32;33937;-66
2022/03/10 02:05:18;;;;;;;28.23;14.03;;;;;;;4.28;57.65;101174.03;5366667;32;34910;-71
2022/03/10 02:11:41;;;;;;;27.67;13.63;;;;;;;4.46;57.95;101180.94;5356397;32;34284;-71
2022/03/10 02:18:05;;;;;;;26.33;14.33;;;;;;;4.21;59.64;101187.91;5377137;32;44912;-67
2022/03/10 02:21:07;;;;;;;25.73;13.27;;;;;;;4.78;58.79;101193.03;5347556;32;35262;-67
2022/03/10 02:24:09;;;;;;;25.53;13.87;;;;;;;5.37;57.81;101192.81;5380383;32;34046;-66
2022/03/10 02:27:16;;;;;;;27.97;14.43;;;;;;;5.07;57.70;101185.13;5348251;32;33956;-66
2022/03/10 02:30:20;;;;;;;26.27;13.93;;;;;;;4.58;59.36;101199.16;5375609;32;35761;-71
2022/03/10 02:33:22;;;;;;;27.40;13.62;;;;;;;6.31;53.60;101194.78;5358022;32;35244;-72
2022/03/10 02:36:24;;;;;;;27.03;14.07;;;;;;;6.53;52.90;101187.66;5348838;32;34057;-67
2022/03/10 02:39:26;;;;;;;26.80;13.43;;;;;;;5.05;56.83;101210.31;5380718;32;34888;-66
2022/03/10 02:42:31;;;;;;;27.33;14.70;;;;;;;4.78;58.28;101206.91;5353757;32;44308;-72
2022/03/10 02:45:33;;;;;;;29.40;15.53;;;;;;;4.97;57.66;101206.87;5364556;32;35280;-66
2022/03/10 02:48:35;;;;;;;26.23;14.87;;;;;;;4.43;59.29;101208.69;5352332;32;34259;-73
2022/03/10 02:51:37;;;;;;;28.50;14.63;;;;;;;4.43;60.10;101226.91;5369781;32;35501;-66
2022/03/10 02:54:39;;;;;;;28.03;14.57;;;;;;;4.86;59.12;101220.78;5372962;32;35766;-71
2022/03/10 02:57:41;;;;;;;29.07;15.40;;;;;;;5.10;57.52;101213.78;5338890;32;35671;-71
2022/03/10 03:00:44;;;;;;;29.27;14.87;;;;;;;6.16;54.56;101211.47;5379155;32;35017;-66
2022/03/10 03:03:46;;;;;;;31.15;15.88;;;;;;;4.83;58.94;101230.34;5354694;32;34331;-66
2022/03/10 03:06:48;;;;;;;29.43;15.77;;;;;;;4.59;59.93;101239.94;5379420;32;34920;-66
2022/03/10 03:09:51;;;;;;;29.23;15.30;;;;;;;5.23;56.77;101225.88;5352230;32;35130;-66
2022/03/10 03:12:53;;;;;;;29.30;15.43;;;;;;;4.53;56.82;101244.28;5350504;32;34044;-72
2022/03/10 03:15:55;;;;;;;30.43;15.50;;;;;;;4.56;56.11;101249.47;5367262;32;34411;-66
2022/03/10 03:18:57;;;;;;;29.97;15.07;;;;;;;4.97;54.14;101245.97;5361021;32;43568;-66
2022/03/10 03:21:59;;;;;;;27.97;14.53;;;;;;;5.06;54.27;101249.38;5377938;32;34726;-67
2022/03/10 03:25:01;;;;;;;29.07;15.00;;;;;;;5.26;52.79;101256.28;5365458;32;35901;-72
2022/03/10 03:28:04;;;;;;;33.07;15.90;;;;;;;4.41;55.78;101260.78;5378826;32;35310;-71
2022/03/10 03:31:06;;;;;;;32.00;15.73;;;;;;;4.80;55.25;101257.25;5340082;32;35521;-66
2022/03/10 03:34:11;;;;;;;29.97;15.23;;;;;;;4.24;56.50;101272.91;5372692;32;34662;-73
2022/03/10 03:37:13;;;;;;;30.40;14.80;;;;;;;4.92;54.45;101263.31;5364745;32;34843;-71
2022/03/10 03:40:15;;;;;;;35.87;16.13;;;;;;;4.52;56.67;101272.06;5366050;32;34834;-71
2022/03/10 03:43:17;;;;;;;28.20;15.23;;;;;;;4.78;55.60;101276.38;5362985;32;35033;-72
2022/03/10 03:46:19;;;;;;;26.90;15.03;;;;;;;4.63;56.39;101288.53;5342438;32;35224;-67
2022/03/10 03:49:22;;;;;;;31.50;15.30;;;;;;;4.89;55.89;101282.41;5381809;32;34975;-70
2022/03/10 03:52:24;;;;;;;30.17;15.57;;;;;;;4.96;55.45;101296.28;5349756;32;34392;-71
2022/03/10 03:55:26;;;;;;;31.30;16.40;;;;;;;4.86;55.40;101311.97;5368710;32;35306;-67
2022/03/10 03:58:28;;;;;;;29.43;15.60;;;;;;;4.60;56.16;101298.09;5366433;32;44284;-70
2022/03/10 04:01:31;;;;;;;28.50;15.77;;;;;;;4.43;56.94;101308.47;5350718;32;33887;-72
2022/03/10 04:04:33;;;;;;;32.17;15.83;;;;;;;4.16;58.67;101311.91;5357681;32;34956;-67
2022/03/10 04:07:35;;;;;;;35.03;16.97;;;;;;;4.42;58.66;101317.16;5353024;32;35282;-66
2022/03/10 04:10:38;;;;;;;30.27;16.40;;;;;;;4.42;59.13;101322.38;5378983;32;35201;-66
2022/03/10 04:13:41;;;;;;;30.08;16.77;;;;;;;4.75;57.68;101329.31;5342325;32;34658;-67
2022/03/10 04:16:43;;;;;;;30.23;15.97;;;;;;;4.83;57.74;101334.50;5360502;32;34659;-67
2022/03/10 04:19:45;;;;;;;29.50;15.10;;;;;;;4.89;57.23;101347.53;5379795;32;35322;-67
2022/03/10 04:22:47;;;;;;;29.87;15.07;;;;;;;4.37;58.56;101350.12;5365584;32;34451;-67
2022/03/10 04:25:49;;;;;;;26.30;14.07;;;;;;;3.78;59.51;101361.22;5367281;32;35262;-72
2022/03/10 04:28:54;;;;;;;28.60;14.73;;;;;;;4.38;57.88;101358.78;5365228;32;34725;-67
2022/03/10 04:31:56;;;;;;;25.00;12.43;;;;;;;3.93;58.53;101368.22;5380223;32;34342;-65
2022/03/10 04:34:58;;;;;;;26.73;13.97;;;;;;;3.23;58.97;101390.41;5366555;32;45096;-72
2022/03/10 04:38:01;;;;;;;22.90;10.83;;;;;;;3.83;56.87;101395.06;5364337;32;33897;-66
2022/03/10 04:41:03;;;;;;;27.03;10.97;;;;;;;3.88;54.95;101396.81;5379001;32;34915;-71
2022/03/10 04:44:05;;;;;;;20.70;9.90;;;;;;;3.65;54.03;101399.28;5330884;32;34635;-68
2022/03/10 04:47:07;;;;;;;18.83;8.90;;;;;;;3.83;52.86;101411.53;5362914;32;35143;-67
2022/03/10 04:50:11;;;;;;;16.63;7.43;;;;;;;3.50;52.34;101417.41;5364875;32;34796;-71
2022/03/10 04:53:14;;;;;;;19.03;7.10;;;;;;;3.76;51.07;101414.97;5366762;32;36986;-72
2022/03/10 04:56:16;;;;;;;16.23;7.20;;;;;;;4.00;49.94;101422.03;5353222;32;34150;-66
2022/03/10 04:59:18;;;;;;;15.93;6.10;;;;;;;3.48;49.92;101421.75;5365686;32;34548;-66
2022/03/10 05:02:20;;;;;;;15.93;5.67;;;;;;;3.96;47.67;101412.44;5379833;32;34760;-67
2022/03/10 05:05:22;;;;;;;12.33;5.20;;;;;;;4.26;46.35;101415.19;5366815;32;35926;-71
2022/03/10 05:08:25;;;;;;;13.40;5.93;;;;;;;3.73;46.49;101417.53;5357156;32;35212;-71
2022/03/10 05:11:27;;;;;;;9.83;4.57;;;;;;;4.45;44.77;101416.09;5359647;32;35123;-70
2022/03/10 05:14:30;;;;;;;10.53;4.97;;;;;;;3.78;44.95;101426.22;5370147;32;34916;-65
2022/03/10 05:17:32;;;;;;;11.87;4.30;;;;;;;4.47;43.10;101421.31;5365152;32;35156;-67
2022/03/10 05:20:34;;;;;;;8.83;3.83;;;;;;;4.85;41.79;101431.78;5364489;32;35518;-71
2022/03/10 05:23:37;;;;;;;9.50;4.60;;;;;;;3.48;43.73;101443.41;5357029;32;34206;-66
2022/03/10 05:26:39;;;;;;;12.43;5.13;;;;;;;4.00;43.45;101455.84;5347939;32;34572;-67
2022/03/10 05:29:41;;;;;;;11.13;4.60;;;;;;;5.31;40.20;101445.69;5380003;32;33949;-66
2022/03/10 05:32:43;;;;;;;11.43;4.30;;;;;;;3.96;42.74;101461.88;5363801;32;35078;-66
2022/03/10 05:35:45;;;;;;;16.70;6.30;;;;;;;4.43;41.38;101456.00;5374475;32;34385;-71
2022/03/10 05:38:47;;;;;;;10.87;4.70;;;;;;;4.54;41.34;101465.56;5349299;32;35660;-66
2022/03/10 05:41:55;;;;;;;12.73;4.87;;;;;;;4.07;41.90;101470.63;5347275;32;36882;-66
2022/03/10 05:44:57;;;;;;;11.73;5.33;;;;;;;4.68;40.52;101469.94;5354444;32;36622;-71
2022/03/10 05:47:59;;;;;;;9.63;4.47;;;;;;;5.08;39.82;101476.94;5352954;32;34147;-67
2022/03/10 05:51:01;;;;;;;11.97;4.63;;;;;;;4.46;41.08;101488.13;5378624;32;35404;-73
2022/03/10 05:54:04;;;;;;;12.70;5.03;;;;;;;4.78;40.85;101482.13;5359277;32;35990;-67
2022/03/10 05:57:06;;;;;;;10.93;4.10;;;;;;;4.98;40.09;101480.44;5369409;32;34696;-67
2022/03/10 06:00:10;;;;;;;9.47;4.17;;;;;;;4.25;41.35;101503.63;5372285;32;34619;-72
2022/03/10 06:03:12;;;;;;;;;;;;;;;4.20;41.94;101500.16;5362166;32;34178;-68
2022/03/10 06:06:14;;;;;;;12.43;4.33;;;;;;;5.15;40.01;101494.34;5373670;32;36370;-72
2022/03/10 06:09:16;;;;;;;12.10;5.10;;;;;;;5.18;39.35;101493.47;5362768;32;34902;-67
2022/03/10 06:12:23;;;;;;;13.93;4.83;;;;;;;5.13;39.10;101496.06;5370861;32;34585;-67
2022/03/10 06:15:26;;;;;;;11.70;4.50;;;;;;;4.55;40.72;101515.91;5354665;32;35235;-72
2022/03/10 06:18:29;;;;;;;11.85;5.30;;;;;;;4.93;39.72;101516.03;5358396;32;45911;-72
2022/03/10 06:21:33;;;;;;;14.07;4.50;;;;;;;3.89;41.52;101519.94;5371487;32;35371;-72
2022/03/10 06:24:35;;;;;;;;;;;;;;;3.36;42.81;101533.41;5352457;32;35479;-67
2022/03/10 06:27:37;;;;;;;11.23;5.27;;;;;;;4.49;39.91;101532.37;5376686;32;35042;-72
2022/03/10 06:30:39;;;;;;;10.77;4.87;;;;;;;5.42;38.52;101518.69;5358788;32;34638;-67
2022/03/10 06:33:45;;;;;;;9.87;4.37;;;;;;;5.83;37.57;101521.25;5360992;32;35212;-68
2022/03/10 06:36:49;;;;;;;12.15;4.12;;;;;;;4.88;38.68;101534.25;5327444;32;35624;-69
2022/03/10 06:39:52;;;;;;;9.80;4.23;;;;;;;5.42;38.12;101535.19;5365035;32;34245;-67
2022/03/10 06:42:55;;;;;;;14.65;5.53;;;;;;;3.45;41.32;101547.34;5357672;32;35139;-72
2022/03/10 06:45:57;;;;;;;12.07;5.03;;;;;;;3.36;42.10;101560.25;5337816;32;44865;-68
2022/03/10 06:49:00;;;;;;;12.03;4.77;;;;;;;4.63;40.73;101556.72;5373743;32;33945;-64
2022/03/10 06:52:02;;;;;;;14.00;6.00;;;;;;;4.04;42.16;101561.63;5359014;32;35224;-70
2022/03/10 06:55:05;;;;;;;14.10;5.50;;;;;;;3.87;43.37;101560.66;5369947;32;33998;-71
2022/03/10 06:58:07;;;;;;;12.37;5.07;;;;;;;4.02;43.47;101569.44;5351705;32;35320;-74
2022/03/10 07:01:09;;;;;;;14.10;6.77;;;;;;;4.82;41.78;101564.59;5358972;32;33913;-73
2022/03/10 07:04:12;;;;;;;11.87;5.17;;;;;;;4.94;41.41;101562.03;5361199;32;34213;-71
2022/03/10 07:07:15;;;;;;;15.43;5.57;;;;;;;4.89;41.48;101561.16;5361530;32;34795;-74
2022/03/10 07:10:17;;;;;;;14.10;5.80;;;;;;;5.77;38.83;101560.41;5360937;32;34267;-77
2022/03/10 07:13:20;;;;;;;12.20;5.77;;;;;;;6.21;37.66;101565.59;5355259;32;35635;-73
2022/03/10 07:16:27;;;;;;;15.30;5.20;;;;;;;5.84;38.04;101562.13;5367755;32;43382;-75
2022/03/10 07:19:29;;;;;;;17.77;7.67;;;;;;;6.82;35.95;101572.31;5367089;32;34620;-72
2022/03/10 07:22:31;;;;;;;16.20;5.33;;;;;;;5.69;37.69;101576.06;5360526;32;33998;-85
2022/03/10 07:25:34;;;;;;;16.43;5.67;;;;;;;5.50;38.48;101584.75;5375295;32;34151;-73
2022/03/10 07:28:36;;;;;;;11.33;4.83;;;;;;;5.56;38.31;101595.19;5367928;32;34007;-76
2022/03/10 07:31:38;;;;;;;15.40;5.67;;;;;;;6.14;35.74;101589.09;5360010;32;35268;-73
2022/03/10 07:34:41;;;;;;;11.77;5.43;;;;;;;6.40;35.84;101586.44;5366973;32;34081;-72
2022/03/10 07:37:44;;;;;;;14.67;5.17;;;;;;;6.37;34.57;101595.13;5370001;32;34624;-70
2022/03/10 07:40:46;;;;;;;13.02;5.55;;;;;;;6.99;33.89;101585.31;5369738;32;34971;-71
2022/03/10 07:43:50;;;;;;;14.87;7.00;;;;;;;7.45;33.12;101588.50;5341701;32;34905;-74
2022/03/10 07:46:53;;;;;;;9.77;4.40;;;;;;;9.72;29.44;101566.63;5362069;32;34291;-76
2022/03/10 07:49:57;;;;;;;11.67;5.07;;;;;;;7.20;31.93;101587.78;5357918;32;34683;-71
2022/03/10 07:52:59;;;;;;;9.90;4.93;;;;;;;8.81;30.80;101576.69;5381015;32;45277;-69
2022/03/10 07:56:01;;;;;;;9.53;5.03;;;;;;;11.57;26.22;101565.44;5362106;32;36344;-73
2022/03/10 07:59:04;;;;;;;12.10;6.17;;;;;;;12.15;25.41;101566.59;5363389;32;35312;-69
2022/03/10 08:02:06;;;;;;;13.30;5.20;;;;;;;12.15;25.02;101573.66;5353274;32;35371;-70
2022/03/10 08:05:14;;;;;;;10.23;4.87;;;;;;;10.86;25.97;101570.59;5364437;32;34038;-77
2022/03/10 08:08:17;;;;;;;10.87;4.60;;;;;;;9.99;27.73;101569.66;5351327;32;34664;-75
2022/03/10 08:11:19;;;;;;;11.43;5.28;;;;;;;8.04;30.22;101584.50;5358189;32;34536;-69
2022/03/10 08:14:21;;;;;;;11.27;5.40;;;;;;;7.77;31.20;101585.63;5368825;32;33924;-70
2022/03/10 08:17:25;;;;;;;10.23;5.10;;;;;;;8.12;30.84;101589.69;5323767;32;34078;-73
2022/03/10 08:20:27;;;;;;;;;;;;;;;7.30;32.44;101586.88;5328466;32;44700;-72
2022/03/10 08:23:29;;;;;;;11.67;5.37;;;;;;;6.50;33.53;101593.34;5366105;32;34257;-74
2022/03/10 08:26:32;;;;;;;11.00;4.93;;;;;;;5.63;35.43;101598.66;5346137;32;34618;-77
2022/03/10 08:29:35;;;;;;;16.50;4.55;;;;;;;5.62;35.60;101596.94;5378809;32;34052;-70
2022/03/10 08:32:37;;;;;;;11.00;4.50;;;;;;;6.51;31.30;101600.34;5364053;32;34209;-68
2022/03/10 08:35:41;;;;;;;16.87;5.07;;;;;;;5.70;30.68;101609.09;5375032;32;34024;-73
2022/03/10 08:38:45;;;;;;;12.03;4.70;;;;;;;5.76;29.95;101595.19;5347162;32;34529;-73
2022/03/10 08:41:49;;;;;;;11.57;4.23;;;;;;;5.25;31.47;101609.03;5360184;32;35426;-70
2022/03/10 08:44:51;;;;;;;9.93;4.33;;;;;;;5.14;31.70;101602.03;5344936;32;34465;-76
2022/03/10 08:47:55;;;;;;;12.80;4.80;;;;;;;5.63;30.83;101602.13;5353770;32;33944;-71
2022/03/10 08:51:00;;;;;;;9.35;4.28;;;;;;;5.64;31.13;101609.09;5366327;32;44421;-74
2022/03/10 08:54:03;;;;;;;11.30;3.83;;;;;;;5.57;30.85;101596.06;5366478;32;35128;-73
2022/03/10 08:57:05;;;;;;;12.43;5.10;;;;;;;5.83;30.19;101602.13;5369287;32;34393;-71
2022/03/10 09:00:10;;;;;;;13.57;4.80;;;;;;;5.30;31.63;101604.72;5368616;32;34056;-72
2022/03/10 09:03:12;;;;;;;9.27;4.23;;;;;;;5.85;30.94;101594.31;5352566;32;34711;-77
2022/03/10 09:06:16;;;;;;;9.03;3.90;;;;;;;5.88;30.24;101597.78;5370047;32;35289;-71
2022/03/10 09:09:19;;;;;;;13.45;4.03;;;;;;;6.21;29.20;101591.69;5365334;32;33970;-73
2022/03/10 09:12:21;;;;;;;9.60;3.30;;;;;;;5.83;28.50;101609.97;5356649;32;34254;-73
2022/03/10 09:15:23;;;;;;;10.30;4.00;;;;;;;5.54;28.23;101601.25;5362450;32;33994;-70
2022/03/10 09:18:26;;;;;;;10.83;3.90;;;;;;;6.18;27.74;101606.47;5361154;32;34123;-71
2022/03/10 09:21:28;;;;;;;12.97;4.77;;;;;;;5.96;28.73;101595.19;5368706;32;44807;-79
2022/03/10 09:24:31;;;;;;;11.77;4.10;;;;;;;6.21;28.08;101606.50;5348242;32;35420;-72
2022/03/10 09:27:36;;;;;;;10.20;4.90;;;;;;;5.83;28.38;101617.78;5379617;32;34056;-70
2022/03/10 09:30:40;;;;;;;8.77;3.80;;;;;;;6.29;28.33;101614.31;5352234;32;35301;-75
2022/03/10 09:33:45;;;;;;;7.83;3.37;;;;;;;6.45;28.26;101606.44;5367949;32;35137;-75
2022/03/10 09:36:49;;;;;;;;;;;;;;;5.29;27.84;101614.28;5351737;32;34189;-75
2022/03/10 09:39:52;;;;;;;8.77;3.60;;;;;;;5.60;27.16;101619.50;5368770;32;34443;-77
2022/03/10 09:42:55;;;;;;;8.38;3.42;;;;;;;6.15;26.78;101607.38;5363392;32;33584;-79
2022/03/10 09:45:59;;;;;;;9.80;4.10;;;;;;;5.87;26.64;101614.31;5355310;32;44079;-79
2022/03/10 09:49:02;;;;;;;8.53;3.27;;;;;;;6.21;26.69;101614.31;5355556;32;34088;-77
2022/03/10 09:52:08;;;;;;;10.00;4.00;;;;;;;6.04;26.19;101623.91;5356918;32;34471;-83
2022/03/10 09:55:15;;;;;;;10.87;3.03;;;;;;;7.27;24.56;101615.63;5375405;32;34017;-72
2022/03/10 09:58:17;;;;;;;8.53;3.53;;;;;;;8.03;22.57;101619.44;5368931;32;34163;-75
2022/03/10 10:01:20;;;;;;;10.50;4.03;;;;;;;9.87;20.81;101611.88;5350360;32;35259;-71
2022/03/10 10:04:23;;;;;;;11.83;4.10;;;;;;;11.10;19.65;101600.75;5376202;32;34190;-88
2022/03/10 10:07:29;;;;;;;10.82;3.50;;;;;;;14.28;16.67;101595.19;5365906;32;35717;-77
2022/03/10 10:10:35;;;;;;;8.27;3.87;;;;;;;14.59;16.11;101587.06;5373032;32;45299;-75
2022/03/10 10:13:48;;;;;;;13.62;5.05;;;;;;;12.58;17.20;101614.66;5367704;32;33963;-79
2022/03/10 10:16:57;;;;;;;8.33;3.40;;;;;;;14.27;16.26;101608.47;5370875;32;34934;-71
2022/03/10 10:20:01;;;;;;;7.27;3.60;;;;;;;15.12;14.95;101601.84;5371190;32;44635;-72
2022/03/10 10:23:18;;;;;;;9.00;3.43;;;;;;;12.62;16.76;101611.91;5368524;32;35204;-73
2022/03/10 10:26:26;;;;;;;8.20;3.50;;;;;;;15.66;15.24;101600.63;5374909;32;35613;-71
2022/03/10 10:29:28;;;;;;;12.40;4.50;;;;;;;12.44;17.19;101626.47;5366695;32;46682;-72
2022/03/10 10:32:36;;;;;;;6.37;3.30;;;;;;;13.38;16.65;101624.62;5355852;32;35616;-74
2022/03/10 10:35:40;;;;;;;7.50;3.27;;;;;;;16.09;14.15;101606.75;5359753;32;34460;-75
2022/03/10 10:38:47;;;;;;;7.67;3.50;;;;;;;13.53;16.25;101621.53;5367195;32;34936;-75
2022/03/10 10:41:50;;;;;;;9.70;3.83;;;;;;;15.59;14.74;101607.06;5379599;32;35297;-75
2022/03/10 10:44:52;;;;;;;8.77;4.35;;;;;;;16.90;13.73;101597.88;5336768;32;36887;-86
2022/03/10 10:48:09;;;;;;;6.37;3.20;;;;;;;16.29;13.85;101604.09;5367862;32;34308;-83
2022/03/10 10:51:12;;;;;;;8.00;4.40;;;;;;;17.52;12.70;101600.22;5370880;32;33955;-83
2022/03/10 10:54:20;;;;;;;10.10;3.58;;;;;;;14.29;15.50;101610.16;5366536;32;34077;-72
2022/03/10 10:57:22;;;;;;;6.17;2.93;;;;;;;14.57;14.12;101604.78;5395350;32;34360;-89
2022/03/10 11:00:24;;;;;;;5.87;2.80;;;;;;;14.34;14.63;101607.34;5372498;32;35189;-86
2022/03/10 11:03:31;;;;;;;10.02;3.92;;;;;;;16.61;12.24;101597.38;5386797;32;34007;-84
2022/03/10 11:06:34;;;;;;;7.00;3.00;;;;;;;13.95;13.91;101606.94;5335491;32;44434;-72
2022/03/10 11:09:38;;;;;;;6.40;3.35;;;;;;;16.23;12.53;101607.91;5375576;32;34242;-75
2022/03/10 11:12:41;;;;;;;7.40;3.43;;;;;;;14.12;14.70;101611.66;5369530;32;35721;-72
2022/03/10 11:15:45;;;;;;;7.83;3.67;;;;;;;14.24;15.03;101600.66;5351350;32;33861;-71
2022/03/10 11:18:50;;;;;;;7.13;3.37;;;;;;;12.39;16.67;101624.84;5359058;32;35530;-70
2022/03/10 11:22:10;;;;;;;7.93;3.80;;;;;;;12.51;16.22;101623.66;5362292;32;34468;-74
2022/03/10 11:25:23;;;;;;;10.37;4.00;;;;;;;12.84;16.44;101612.16;5376608;32;35335;-77
2022/03/10 11:28:28;;;;;;;10.07;4.20;;;;;;;11.52;17.67;101608.56;5371525;32;35414;-76
2022/03/10 11:31:32;;;;;;;9.47;4.00;;;;;;;12.10;17.18;101604.53;5355368;32;44379;-80
2022/03/10 11:34:47;;;;;;;15.60;5.70;;;;;;;11.41;17.90;101594.81;5372398;32;36345;-71
2022/03/10 11:37:51;;;;;;;11.40;4.47;;;;;;;10.85;18.49;101598.66;5365865;32;35545;-69
2022/03/10 11:40:56;;;;;;;8.27;3.83;;;;;;;11.84;17.08;101598.16;5377780;32;34011;-83
2022/03/10 11:44:01;;;;;;;8.50;4.30;;;;;;;12.46;17.36;101587.72;5344882;32;44371;-72
2022/03/10 11:47:14;;;;;;;9.43;4.27;;;;;;;13.96;15.69;101577.81;5364659;32;35789;-72
2022/03/10 11:50:23;;;;;;;9.57;4.30;;;;;;;13.48;16.42;101575.91;5374370;32;34029;-71
2022/03/10 11:53:25;;;;;;;10.33;5.23;;;;;;;12.82;17.21;101584.97;5366447;32;35443;-65
2022/03/10 11:56:33;;;;;;;17.47;5.43;;;;;;;13.14;16.65;101591.06;5378335;32;44419;-70
2022/03/10 11:59:35;;;;;;;7.90;3.40;;;;;;;12.90;17.14;101582.09;5369535;32;36613;-61
2022/03/10 12:02:43;;;;;;;7.93;3.60;;;;;;;10.56;19.06;101590.47;5380363;32;34031;-62
2022/03/10 12:05:59;;;;;;;14.20;4.77;;;;;;;10.60;19.28;101593.94;5374400;32;33864;-69
2022/03/10 12:09:03;;;;;;;10.97;3.60;;;;;;;12.53;16.89;101579.66;5369869;32;44497;-68
2022/03/10 12:12:19;;;;;;;11.70;4.13;;;;;;;11.58;17.67;101590.00;5365456;32;34252;-69
2022/03/10 12:15:42;;;;;;;11.63;4.10;;;;;;;13.25;16.06;101579.25;5361476;32;34357;-68
2022/03/10 12:18:45;;;;;;;9.07;3.80;;;;;;;14.07;15.37;101569.53;5376973;32;35481;-62
2022/03/10 12:21:47;;;;;;;18.80;4.00;;;;;;;11.48;17.23;101583.25;5374476;32;35196;-65
2022/03/10 12:24:49;;;;;;;10.33;4.33;;;;;;;15.44;14.72;101556.38;5366730;32;34011;-80
2022/03/10 12:27:52;;;;;;;6.20;3.40;;;;;;;11.95;17.21;101578.59;5358128;32;34299;-65
2022/03/10 12:31:01;;;;;;;8.90;3.77;;;;;;;12.50;16.68;101569.19;5365381;32;35653;-71
2022/03/10 12:34:14;;;;;;;7.73;3.70;;;;;;;11.97;17.15;101577.62;5379739;32;44180;-71
2022/03/10 12:37:16;;;;;;;9.93;3.83;;;;;;;13.85;15.39;101564.12;5370100;32;34181;-71
2022/03/10 12:40:21;;;;;;;8.73;4.00;;;;;;;13.25;16.40;101565.19;5360603;32;35448;-69
2022/03/10 12:43:27;;;;;;;8.27;3.60;;;;;;;13.77;16.14;101566.13;5366839;32;34048;-62
2022/03/10 12:46:30;;;;;;;7.90;3.63;;;;;;;14.19;15.50;101565.59;5359514;32;43415;-69
2022/03/10 12:49:37;;;;;;;6.70;3.40;;;;;;;15.01;15.07;101565.22;5375361;32;34056;-65
2022/03/10 12:52:40;;;;;;;10.40;4.70;;;;;;;15.13;15.16;101563.84;5367088;32;34278;-75
2022/03/10 12:55:47;;;;;;;8.50;3.97;;;;;;;13.51;16.07;101572.28;5375755;32;35885;-65
2022/03/10 12:58:51;;;;;;;7.90;3.63;;;;;;;17.23;13.33;101540.50;5362363;32;35475;-79
2022/03/10 13:01:54;;;;;;;7.73;3.73;;;;;;;17.54;13.00;101541.66;5357639;32;34154;-71
2022/03/10 13:04:59;;;;;;;9.18;4.00;;;;;;;14.68;15.01;101569.09;5362724;32;34681;-71
2022/03/10 13:08:06;;;;;;;8.83;3.93;;;;;;;13.85;15.52;101558.84;5354100;32;44685;-74
2022/03/10 13:11:10;;;;;;;6.97;3.27;;;;;;;13.05;15.98;101565.78;5361094;32;34129;-76
2022/03/10 13:14:14;;;;;;;11.50;3.30;;;;;;;11.14;17.43;101578.72;5359280;32;33432;-66
2022/03/10 13:17:17;;;;;;;7.87;3.67;;;;;;;12.87;15.89;101569.84;5366042;32;35231;-68
2022/03/10 13:20:20;;;;;;;8.70;3.42;;;;;;;13.43;15.36;101558.47;5351113;32;34052;-63
2022/03/10 13:23:27;;;;;;;12.47;4.00;;;;;;;15.06;14.15;101555.28;5368420;32;38368;-74
2022/03/10 13:26:34;;;;;;;8.27;3.20;;;;;;;14.90;14.12;101580.62;5378448;32;44509;-83
2022/03/10 13:29:37;;;;;;;11.23;3.73;;;;;;;18.51;11.69;101549.03;5365758;32;34410;-72
2022/03/10 13:32:42;;;;;;;7.68;3.33;;;;;;;18.38;11.47;101558.63;5380361;32;34597;-72
2022/03/10 13:35:48;;;;;;;8.13;3.50;;;;;;;19.37;10.20;101550.47;5343969;32;34265;-68
2022/03/10 13:38:56;;;;;;;6.33;3.03;;;;;;;18.63;10.50;101558.16;5359036;32;35232;-70
2022/03/10 13:42:01;;;;;;;12.43;3.70;;;;;;;17.59;11.58;101569.72;5363741;32;45149;-73
2022/03/10 13:45:05;;;;;;;7.07;3.63;;;;;;;15.55;13.37;101581.59;5335143;32;35100;-76
2022/03/10 13:48:17;;;;;;;9.47;4.37;;;;;;;17.95;11.69;101566.19;5362342;32;35253;-70
2022/03/10 13:51:23;;;;;;;9.27;3.78;;;;;;;18.48;11.39;101567.81;5355913;32;34539;-63
2022/03/10 13:54:26;;;;;;;6.47;3.60;;;;;;;17.13;12.70;101568.47;5359035;32;35418;-69
2022/03/10 13:57:29;;;;;;;8.13;3.60;;;;;;;15.38;13.31;101569.03;5376589;32;45396;-73
2022/03/10 14:00:34;;;;;;;12.00;3.72;;;;;;;14.42;13.89;101567.41;5345508;32;34378;-67
2022/03/10 14:03:42;;;;;;;7.27;3.47;;;;;;;13.21;14.64;101582.06;5364036;32;34196;-70
2022/03/10 14:06:49;;;;;;;9.63;3.33;;;;;;;11.72;16.89;101584.38;5348355;32;35198;-71
2022/03/10 14:09:52;;;;;;;7.33;3.90;;;;;;;10.48;18.06;101584.50;5361411;32;36787;-70
2022/03/10 14:12:56;;;;;;;8.50;3.40;;;;;;;8.64;20.03;101597.88;5365779;32;35787;-70
2022/03/10 14:16:06;;;;;;;8.10;3.30;;;;;;;8.89;19.38;101590.59;5363032;32;45151;-69
2022/03/10 14:19:20;;;;;;;6.87;2.73;;;;;;;8.68;19.27;101583.84;5375889;32;34128;-67